Saint Petersburg, FL (33707)

4:11 PM EST on March 01, 2017 (GMT -0500)
Pasadena on the Gulf-Mango Ave | | Change Station

Elev 13 ft 27.76 °N, 82.73 °W | Updated 4 seconds ago

Clear
Clear
80.4 °F
Feels Like 83 °F
N
2.0
Wind Variable Wind from SSW
Gusts 3.0 mph

Today
High -- | Low -- °F
--% Chance of Precip.
Yesterday
High -- | Low -- °F
Precip. -- in
Pressure 30.05 in
Visibility 10.0 miles
Clouds Clear
Heat Index 83 °F
Dew Point 69 °F
Humidity 69%
Rainfall 0.00 in
Snow Depth Not available.
6:55 AM 6:31 PM
Waxing Crescent, 13% visible
METAR KSPG 012053Z 27008KT 10SM CLR 26/18 A3005 RMK AO2 SLP176 T02560183 56020
Pressure 30.05 in
Visibility 10.0 miles
Clouds Clear
Heat Index 83 °F
Dew Point 69 °F
Humidity 69%
Rainfall 0.00 in
Snow Depth Not available.
6:55 AM 6:31 PM
Waxing Crescent, 13% visible
METAR KSPG 012053Z 27008KT 10SM CLR 26/18 A3005 RMK AO2 SLP176 T02560183 56020

Get Your Daily Forecast Email!

Thanks for signing up!

Be on the lookout for a verification email in your inbox.

You'll start receiving the daily forecast at 8 AM.

×

10-Day Weather Forecast

Almanac

Astronomy

Mar. 01, 2017 Rise Set
Actual Time
Civil Twilight
Nautical Twilight
Astronomical Twilight
Moon
Length of Visible Light
Length of Day
Tomorrow will be .
, % of the Moon is Illuminated

Today's Extremes

State Highs State Lows

Community

WunderPhotos

Upload Photos

1,962,540 photos uploaded!

WunderBlog® & News

Nearby

Air Quality

  Air Quality AQ Index Pollutant
Not available.

Snow Depth

Station Depth Elevation

Earthquake Activity

City Distance Mag. Time & Date
Minimum magnitude displayed is 2.5.

Coastal Water Temperatures

Place Temperature

Stations

Nearby Weather Stations

Station Location Temp. Windchill Dew Point Humidity Wind Precip. Elev Updated Type
                   

Watches & Warnings

There are currently no watches in effect.